createdAt,value
2018-08-07T00:00:17.041Z,18.41
2018-08-07T00:02:51.356Z,18.39
2018-08-07T00:05:24.702Z,18.32
2018-08-07T00:07:58.047Z,18.31
2018-08-07T00:10:31.369Z,18.26
2018-08-07T00:13:04.793Z,18.21
2018-08-07T00:15:38.188Z,18.22
2018-08-07T00:18:11.537Z,18.17
2018-08-07T00:20:44.886Z,18.12
2018-08-07T00:23:18.233Z,18.10
2018-08-07T00:25:51.605Z,18.09
2018-08-07T00:28:24.937Z,18.07
2018-08-07T00:31:03.675Z,18.06
2018-08-07T00:33:37.047Z,18.04
2018-08-07T00:36:10.364Z,17.95
2018-08-07T00:38:43.691Z,17.87
2018-08-07T00:41:17.150Z,17.80
2018-08-07T00:43:50.481Z,17.94
2018-08-07T00:46:23.804Z,17.92
2018-08-07T00:48:57.138Z,17.94
2018-08-07T00:51:30.508Z,17.90
2018-08-07T00:54:03.859Z,17.85
2018-08-07T00:56:37.264Z,17.79
2018-08-07T00:59:10.581Z,17.74
2018-08-07T01:01:43.949Z,17.72
2018-08-07T01:04:17.248Z,17.75
2018-08-07T01:06:50.569Z,17.77
2018-08-07T01:09:23.871Z,17.75
2018-08-07T01:11:57.190Z,17.74
2018-08-07T01:14:30.558Z,17.73
2018-08-07T01:17:03.953Z,17.69
2018-08-07T01:19:37.356Z,17.62
2018-08-07T01:22:10.684Z,17.56
2018-08-07T01:24:44.021Z,17.58
2018-08-07T01:27:17.312Z,17.53
2018-08-07T01:29:50.632Z,17.55
2018-08-07T01:32:23.954Z,17.51
2018-08-07T01:34:57.271Z,17.48
2018-08-07T01:37:30.582Z,17.39
2018-08-07T01:40:04.143Z,17.32
2018-08-07T01:42:37.503Z,17.29
2018-08-07T01:45:11.257Z,17.28
2018-08-07T01:47:44.586Z,17.25
2018-08-07T01:50:17.933Z,17.21
2018-08-07T01:52:51.260Z,17.17
2018-08-07T01:55:26.281Z,17.13
2018-08-07T01:57:59.601Z,17.05
2018-08-07T02:00:32.932Z,16.99
2018-08-07T02:03:06.280Z,16.98
2018-08-07T02:05:40.706Z,16.98
2018-08-07T02:08:14.044Z,16.96
2018-08-07T02:10:47.377Z,16.99
2018-08-07T02:13:20.898Z,16.98
2018-08-07T02:15:54.264Z,16.93
2018-08-07T02:18:27.589Z,16.87
2018-08-07T02:21:00.957Z,16.85
2018-08-07T02:23:34.312Z,16.84
2018-08-07T02:26:07.801Z,16.81
2018-08-07T02:28:41.125Z,16.80
2018-08-07T02:31:14.465Z,16.78
2018-08-07T02:33:47.773Z,16.77
2018-08-07T02:36:21.158Z,16.76
2018-08-07T02:38:54.480Z,16.77
2018-08-07T02:41:27.840Z,16.78
2018-08-07T02:44:01.193Z,16.75
2018-08-07T02:46:34.566Z,16.70
2018-08-07T02:49:07.894Z,16.67
2018-08-07T02:51:41.253Z,16.63
2018-08-07T02:54:14.601Z,16.61
2018-08-07T02:56:47.929Z,16.50
2018-08-07T02:59:21.352Z,16.52
2018-08-07T03:01:54.780Z,16.51
2018-08-07T03:04:28.114Z,16.47
2018-08-07T03:07:01.487Z,16.47
2018-08-07T03:09:34.882Z,16.44
2018-08-07T03:12:08.261Z,16.43
2018-08-07T03:14:41.605Z,16.43
2018-08-07T03:17:15.001Z,16.40
2018-08-07T03:19:48.400Z,16.39
2018-08-07T03:22:21.812Z,16.36
2018-08-07T03:24:55.190Z,16.37
2018-08-07T03:27:28.609Z,16.37
2018-08-07T03:30:01.948Z,16.33
2018-08-07T03:32:35.301Z,16.34
2018-08-07T03:35:09.061Z,16.31
2018-08-07T03:37:42.780Z,16.31
2018-08-07T03:40:19.394Z,16.32
2018-08-07T03:42:52.725Z,16.29
2018-08-07T03:45:26.122Z,16.25
2018-08-07T03:47:59.465Z,16.19
2018-08-07T03:50:32.794Z,16.16
2018-08-07T03:53:06.391Z,16.15
2018-08-07T03:55:39.659Z,16.12
2018-08-07T03:58:13.007Z,16.13
2018-08-07T04:00:49.242Z,16.14
2018-08-07T04:03:22.569Z,16.13
2018-08-07T04:05:55.909Z,16.13
2018-08-07T04:08:29.272Z,16.15
2018-08-07T04:11:02.572Z,16.18
2018-08-07T04:13:36.004Z,16.24
2018-08-07T04:16:09.334Z,16.27
2018-08-07T04:18:42.719Z,16.30
2018-08-07T04:21:16.065Z,16.30
2018-08-07T04:23:49.441Z,16.29
2018-08-07T04:26:22.794Z,16.34
2018-08-07T04:28:56.131Z,16.34
2018-08-07T04:31:29.466Z,16.35
2018-08-07T04:34:02.842Z,16.38
2018-08-07T04:36:36.206Z,16.43
2018-08-07T04:39:11.820Z,16.46
2018-08-07T04:41:45.168Z,16.48
2018-08-07T04:44:18.523Z,16.55
2018-08-07T04:46:51.913Z,16.62
2018-08-07T04:49:25.323Z,16.72
2018-08-07T04:51:58.657Z,16.83
2018-08-07T04:54:31.998Z,16.98
2018-08-07T04:57:05.709Z,17.11
2018-08-07T04:59:39.060Z,17.28
2018-08-07T05:02:12.409Z,17.44
2018-08-07T05:04:45.718Z,17.58
2018-08-07T05:07:19.105Z,17.76
2018-08-07T05:09:52.414Z,17.94
2018-08-07T05:12:25.829Z,18.12
2018-08-07T05:14:59.135Z,18.38
2018-08-07T05:17:32.493Z,18.55
2018-08-07T05:20:05.876Z,18.76
2018-08-07T05:22:40.095Z,18.97
2018-08-07T05:25:13.819Z,19.15
2018-08-07T05:27:47.136Z,19.37
2018-08-07T05:30:20.441Z,19.58
2018-08-07T05:32:53.758Z,19.75
2018-08-07T05:35:27.108Z,19.91
2018-08-07T05:38:00.421Z,20.08
2018-08-07T05:40:33.732Z,20.16
2018-08-07T05:43:07.257Z,20.29
2018-08-07T05:45:40.560Z,20.49
2018-08-07T05:48:13.892Z,20.80
2018-08-07T05:50:47.688Z,21.00
2018-08-07T05:53:20.736Z,21.16
2018-08-07T05:55:54.028Z,21.24
2018-08-07T05:58:27.364Z,21.42
2018-08-07T06:01:00.712Z,21.68
2018-08-07T06:03:34.058Z,21.95
2018-08-07T06:06:07.422Z,22.15
2018-08-07T06:08:40.768Z,22.34
2018-08-07T06:11:14.085Z,22.47
2018-08-07T06:13:47.454Z,22.60
2018-08-07T06:16:20.809Z,22.78
2018-08-07T06:18:54.212Z,22.96
2018-08-07T06:21:27.535Z,23.22
2018-08-07T06:24:00.897Z,23.42
2018-08-07T06:26:34.195Z,23.57
2018-08-07T06:29:07.623Z,23.81
2018-08-07T06:31:40.996Z,24.21
2018-08-07T06:34:14.325Z,24.44
2018-08-07T06:36:47.630Z,24.66
2018-08-07T06:39:20.945Z,24.90
2018-08-07T06:41:54.247Z,25.10
2018-08-07T06:44:27.585Z,25.33
2018-08-07T06:47:00.975Z,25.52
2018-08-07T06:49:34.304Z,25.63
2018-08-07T06:52:07.685Z,25.73
2018-08-07T06:54:41.008Z,25.90
2018-08-07T06:57:14.367Z,26.10
2018-08-07T06:59:47.695Z,26.18
2018-08-07T07:02:21.017Z,26.33
2018-08-07T07:04:54.335Z,26.53
2018-08-07T07:07:27.664Z,26.70
2018-08-07T07:10:00.985Z,26.72
2018-08-07T07:12:34.323Z,26.89
2018-08-07T07:15:08.995Z,27.21
2018-08-07T07:17:43.397Z,27.72
2018-08-07T07:20:17.837Z,28.24
2018-08-07T07:22:51.155Z,28.64
2018-08-07T07:25:24.485Z,28.58
2018-08-07T07:27:57.769Z,28.43
2018-08-07T07:30:31.076Z,28.20
2018-08-07T07:33:04.554Z,28.28
2018-08-07T07:35:37.905Z,28.13
2018-08-07T07:38:11.218Z,28.38
2018-08-07T07:40:44.594Z,28.60
2018-08-07T07:43:17.869Z,28.80
2018-08-07T07:45:51.190Z,28.98
2018-08-07T07:48:24.528Z,28.98
2018-08-07T07:50:57.850Z,29.19
2018-08-07T07:53:31.186Z,29.51
2018-08-07T07:56:04.580Z,29.64
2018-08-07T07:58:38.082Z,30.03
2018-08-07T08:01:11.438Z,30.26
2018-08-07T08:03:44.742Z,29.86
2018-08-07T08:06:18.064Z,30.58
2018-08-07T08:08:51.376Z,30.76
2018-08-07T08:11:24.725Z,30.95
2018-08-07T08:13:58.029Z,31.13
2018-08-07T08:16:31.416Z,31.24
2018-08-07T08:19:04.785Z,31.41
2018-08-07T08:21:38.213Z,31.81
2018-08-07T08:24:11.557Z,32.21
2018-08-07T08:26:44.897Z,32.38
2018-08-07T08:29:18.393Z,32.44
2018-08-07T08:31:51.637Z,32.45
2018-08-07T08:34:27.023Z,32.52
2018-08-07T08:37:00.344Z,32.43
2018-08-07T08:39:33.653Z,32.46
2018-08-07T08:42:07.157Z,32.36
2018-08-07T08:44:40.488Z,32.54
2018-08-07T08:47:13.851Z,32.83
2018-08-07T08:49:47.157Z,32.96
2018-08-07T08:52:20.537Z,32.94
2018-08-07T08:54:53.867Z,33.23
2018-08-07T08:57:27.209Z,33.82
2018-08-07T09:00:00.748Z,34.87
2018-08-07T09:02:34.092Z,36.84
2018-08-07T09:05:09.233Z,38.03
2018-08-07T09:07:43.029Z,38.19
2018-08-07T09:10:21.651Z,37.02
2018-08-07T09:12:55.619Z,36.10
2018-08-07T09:15:29.582Z,35.68
2018-08-07T09:18:02.915Z,35.82
2018-08-07T09:20:36.316Z,36.86
2018-08-07T09:23:09.657Z,38.39
2018-08-07T09:25:43.122Z,39.31
2018-08-07T09:28:16.414Z,38.35
2018-08-07T09:30:49.768Z,39.32
2018-08-07T09:33:23.514Z,39.15
2018-08-07T09:35:56.901Z,38.35
2018-08-07T09:38:30.237Z,37.22
2018-08-07T09:41:03.912Z,36.60
2018-08-07T09:43:37.242Z,36.06
2018-08-07T09:46:10.612Z,35.79
2018-08-07T09:48:43.987Z,35.56
2018-08-07T09:51:17.325Z,35.47
2018-08-07T09:53:50.676Z,35.51
2018-08-07T09:56:24.017Z,35.49
2018-08-07T09:58:57.389Z,35.69
2018-08-07T10:01:31.681Z,35.71
2018-08-07T10:04:05.041Z,35.68
2018-08-07T10:06:38.349Z,35.84
2018-08-07T10:09:11.691Z,35.83
2018-08-07T10:11:45.291Z,35.71
2018-08-07T10:14:18.702Z,35.68
2018-08-07T10:16:52.272Z,35.72
2018-08-07T10:19:26.823Z,35.87
2018-08-07T10:22:00.376Z,35.86
2018-08-07T10:24:34.056Z,35.88
2018-08-07T10:27:07.396Z,36.00
2018-08-07T10:29:40.723Z,35.89
2018-08-07T10:32:14.071Z,36.11
2018-08-07T10:34:47.435Z,36.00
2018-08-07T10:37:20.766Z,36.17
2018-08-07T10:39:54.145Z,36.08
2018-08-07T10:42:27.504Z,35.95
2018-08-07T10:45:29.846Z,35.92
2018-08-07T10:48:03.282Z,36.23
2018-08-07T10:50:36.718Z,36.42
2018-08-07T10:53:10.176Z,36.36
2018-08-07T10:55:43.620Z,36.22
2018-08-07T10:58:17.065Z,36.14
2018-08-07T11:00:50.532Z,36.06
2018-08-07T11:03:23.948Z,35.97
2018-08-07T11:05:57.408Z,36.05
2018-08-07T11:08:30.867Z,35.79
2018-08-07T11:11:04.283Z,35.80
2018-08-07T11:13:37.790Z,35.74
2018-08-07T11:16:11.186Z,35.93
2018-08-07T11:18:44.635Z,36.21
2018-08-07T11:21:18.069Z,36.42
2018-08-07T11:23:51.483Z,36.68
2018-08-07T11:26:24.877Z,37.00
2018-08-07T11:28:58.311Z,37.05
2018-08-07T11:31:31.778Z,37.35
2018-08-07T11:34:05.197Z,37.47
2018-08-07T11:36:38.632Z,37.62
2018-08-07T11:39:12.104Z,37.48
2018-08-07T11:41:45.504Z,37.45
2018-08-07T11:44:18.910Z,37.67
2018-08-07T11:46:52.361Z,37.59
2018-08-07T11:49:25.799Z,37.74
2018-08-07T11:51:59.213Z,38.36
2018-08-07T11:54:32.727Z,38.10
2018-08-07T11:57:06.756Z,37.62
2018-08-07T11:59:40.244Z,37.34
2018-08-07T12:02:14.638Z,37.26
2018-08-07T12:04:48.933Z,37.41
2018-08-07T12:07:22.344Z,37.65
2018-08-07T12:09:55.784Z,37.51
2018-08-07T12:12:29.454Z,37.30
2018-08-07T12:15:02.915Z,37.25
2018-08-07T12:17:36.691Z,37.29
2018-08-07T12:20:10.108Z,37.45
2018-08-07T12:22:43.555Z,37.48
2018-08-07T12:25:17.749Z,37.57
2018-08-07T12:27:51.226Z,37.60
2018-08-07T12:30:26.877Z,37.62
2018-08-07T12:33:00.715Z,37.53
2018-08-07T12:35:34.181Z,37.45
2018-08-07T12:38:07.671Z,37.23
2018-08-07T12:40:41.113Z,36.90
2018-08-07T12:43:14.518Z,36.60
2018-08-07T12:45:47.928Z,36.32
2018-08-07T12:48:21.350Z,36.14
2018-08-07T12:50:54.764Z,36.06
2018-08-07T12:53:28.224Z,36.30
2018-08-07T12:56:01.671Z,36.34
2018-08-07T12:58:35.114Z,36.47
2018-08-07T13:01:08.549Z,36.36
2018-08-07T13:03:42.002Z,36.13
2018-08-07T13:06:15.408Z,35.74
2018-08-07T13:08:48.820Z,35.75
2018-08-07T13:11:22.235Z,35.97
2018-08-07T13:13:56.034Z,36.03
2018-08-07T13:16:29.456Z,36.28
2018-08-07T13:19:02.879Z,36.29
2018-08-07T13:21:36.306Z,36.07
2018-08-07T13:24:09.763Z,35.87
2018-08-07T13:26:43.199Z,35.91
2018-08-07T13:29:16.653Z,36.00
2018-08-07T13:31:50.045Z,36.21
2018-08-07T13:34:23.543Z,36.37
2018-08-07T13:36:56.990Z,36.57
2018-08-07T13:39:30.458Z,36.67
2018-08-07T13:42:03.877Z,36.50
2018-08-07T13:44:37.365Z,36.42
2018-08-07T13:47:10.860Z,36.59
2018-08-07T13:49:44.358Z,36.74
2018-08-07T13:52:17.753Z,36.71
2018-08-07T13:54:51.190Z,36.55
2018-08-07T13:57:24.578Z,36.47
2018-08-07T13:59:57.986Z,36.21
2018-08-07T14:02:31.371Z,35.91
2018-08-07T14:05:05.171Z,35.75
2018-08-07T14:07:38.571Z,35.53
2018-08-07T14:10:13.138Z,35.73
2018-08-07T14:12:46.584Z,35.90
2018-08-07T14:15:20.871Z,36.12
2018-08-07T14:17:54.252Z,36.33
2018-08-07T14:20:27.712Z,36.45
2018-08-07T14:23:01.147Z,36.62
2018-08-07T14:25:34.551Z,36.65
2018-08-07T14:28:07.973Z,36.79
2018-08-07T14:30:41.373Z,36.89
2018-08-07T14:33:14.758Z,36.89
2018-08-07T14:35:48.205Z,37.02
2018-08-07T14:38:21.617Z,36.99
2018-08-07T14:40:55.080Z,37.09
2018-08-07T14:43:28.515Z,37.12
2018-08-07T14:46:01.928Z,37.01
2018-08-07T14:48:35.312Z,36.94
2018-08-07T14:51:08.721Z,37.03
2018-08-07T14:53:42.108Z,37.15
2018-08-07T14:56:15.512Z,37.22
2018-08-07T14:58:48.955Z,37.19
2018-08-07T15:01:22.384Z,36.97
2018-08-07T15:03:55.947Z,36.87
2018-08-07T15:06:29.451Z,36.92
2018-08-07T15:09:02.820Z,36.86
2018-08-07T15:11:36.240Z,36.88
2018-08-07T15:14:10.599Z,36.92
2018-08-07T15:16:44.116Z,36.72
2018-08-07T15:19:17.476Z,36.64
2018-08-07T15:21:50.928Z,36.64
2018-08-07T15:24:24.319Z,36.65
2018-08-07T15:26:57.780Z,36.69
2018-08-07T15:29:31.237Z,36.70
2018-08-07T15:32:04.671Z,36.77
2018-08-07T15:34:38.099Z,36.82
2018-08-07T15:37:11.560Z,36.80
2018-08-07T15:39:44.970Z,36.89
2018-08-07T15:42:18.390Z,36.83
2018-08-07T15:44:51.798Z,36.83
2018-08-07T15:47:25.272Z,36.83
2018-08-07T15:49:58.715Z,36.83
2018-08-07T15:52:32.127Z,36.82
2018-08-07T15:55:05.613Z,36.70
2018-08-07T15:57:39.081Z,36.67
2018-08-07T16:00:19.427Z,36.42
2018-08-07T16:02:53.129Z,36.39
2018-08-07T16:05:26.569Z,36.36
2018-08-07T16:08:00.044Z,36.29
2018-08-07T16:10:33.526Z,36.31
2018-08-07T16:13:06.936Z,36.37
2018-08-07T16:15:40.383Z,36.38
2018-08-07T16:18:13.496Z,36.24
2018-08-07T16:20:47.384Z,36.16
2018-08-07T16:23:20.935Z,36.13
2018-08-07T16:25:54.829Z,36.15
2018-08-07T16:28:28.275Z,35.97
2018-08-07T16:31:02.196Z,35.89
2018-08-07T16:33:35.727Z,35.83
2018-08-07T16:36:09.148Z,35.83
2018-08-07T16:38:42.835Z,35.79
2018-08-07T16:41:16.294Z,35.84
2018-08-07T16:43:49.743Z,35.82
2018-08-07T16:46:23.187Z,35.79
2018-08-07T16:48:58.837Z,35.69
2018-08-07T16:51:32.895Z,35.73
2018-08-07T16:54:06.651Z,35.67
2018-08-07T16:56:40.079Z,35.68
2018-08-07T16:59:13.527Z,35.55
2018-08-07T17:01:47.144Z,35.46
2018-08-07T17:04:20.576Z,35.27
2018-08-07T17:06:53.972Z,35.27
2018-08-07T17:09:27.498Z,35.29
2018-08-07T17:12:00.944Z,35.27
2018-08-07T17:14:34.331Z,35.22
2018-08-07T17:17:07.801Z,35.20
2018-08-07T17:19:41.711Z,35.11
2018-08-07T17:22:15.282Z,35.02
2018-08-07T17:24:49.108Z,34.89
2018-08-07T17:27:22.592Z,34.82
2018-08-07T17:29:55.990Z,34.74
2018-08-07T17:32:29.404Z,34.70
2018-08-07T17:35:02.781Z,34.65
2018-08-07T17:37:36.243Z,34.58
2018-08-07T17:40:11.479Z,34.53
2018-08-07T17:42:44.928Z,34.40
2018-08-07T17:45:18.358Z,34.22
2018-08-07T17:47:51.800Z,34.10
2018-08-07T17:50:26.279Z,34.02
2018-08-07T17:53:00.352Z,33.93
2018-08-07T17:55:33.769Z,33.85
2018-08-07T17:58:07.226Z,33.69
2018-08-07T18:00:40.659Z,33.62
2018-08-07T18:03:14.089Z,33.49
2018-08-07T18:05:47.493Z,33.40
2018-08-07T18:08:21.022Z,33.31
2018-08-07T18:10:54.400Z,33.22
2018-08-07T18:13:27.872Z,33.13
2018-08-07T18:16:01.283Z,33.02
2018-08-07T18:18:34.760Z,32.87
2018-08-07T18:21:08.176Z,32.74
2018-08-07T18:23:43.085Z,32.63
2018-08-07T18:26:16.584Z,32.51
2018-08-07T18:28:50.008Z,32.38
2018-08-07T18:31:23.436Z,32.22
2018-08-07T18:33:56.871Z,32.04
2018-08-07T18:36:30.287Z,31.89
2018-08-07T18:39:04.410Z,31.69
2018-08-07T18:41:38.397Z,31.50
2018-08-07T18:44:11.851Z,31.39
2018-08-07T18:46:46.069Z,31.24
2018-08-07T18:49:19.468Z,31.17
2018-08-07T18:51:52.855Z,31.04
2018-08-07T18:54:26.273Z,30.84
2018-08-07T18:56:59.666Z,30.75
2018-08-07T18:59:33.894Z,30.54
2018-08-07T19:02:07.936Z,30.39
2018-08-07T19:04:41.335Z,30.24
2018-08-07T19:07:14.806Z,30.14
2018-08-07T19:09:48.225Z,29.94
2018-08-07T19:12:21.643Z,29.79
2018-08-07T19:14:55.058Z,29.68
2018-08-07T19:17:28.524Z,29.46
2018-08-07T19:20:02.012Z,29.35
2018-08-07T19:22:35.440Z,29.22
2018-08-07T19:25:09.812Z,29.12
2018-08-07T19:27:43.439Z,29.03
2018-08-07T19:30:18.438Z,28.95
2018-08-07T19:32:51.888Z,28.83
2018-08-07T19:35:25.296Z,28.67
2018-08-07T19:37:58.763Z,28.60
2018-08-07T19:40:32.174Z,28.51
2018-08-07T19:43:06.033Z,28.34
2018-08-07T19:45:39.462Z,28.15
2018-08-07T19:48:12.943Z,27.93
2018-08-07T19:50:46.330Z,27.83
2018-08-07T19:53:19.748Z,27.81
2018-08-07T19:55:53.186Z,27.74
2018-08-07T19:58:26.714Z,27.66
2018-08-07T20:01:00.584Z,27.61
2018-08-07T20:03:34.116Z,27.52
2018-08-07T20:06:07.583Z,27.43
2018-08-07T20:08:40.970Z,27.26
2018-08-07T20:11:14.364Z,27.04
2018-08-07T20:13:47.840Z,26.97
2018-08-07T20:16:21.240Z,26.85
2018-08-07T20:18:54.642Z,26.76
2018-08-07T20:21:28.028Z,26.57
2018-08-07T20:24:01.477Z,26.40
2018-08-07T20:26:34.928Z,26.31
2018-08-07T20:29:08.374Z,26.28
2018-08-07T20:31:41.769Z,26.23
2018-08-07T20:34:15.184Z,26.16
2018-08-07T20:36:48.573Z,26.07
2018-08-07T20:39:21.960Z,25.95
2018-08-07T20:41:55.358Z,25.85
2018-08-07T20:44:28.788Z,25.78
2018-08-07T20:47:02.191Z,25.64
2018-08-07T20:49:35.635Z,25.56
2018-08-07T20:52:09.025Z,25.42
2018-08-07T20:54:42.452Z,25.43
2018-08-07T20:57:15.854Z,25.42
2018-08-07T20:59:49.264Z,25.39
2018-08-07T21:02:22.681Z,25.30
2018-08-07T21:04:56.084Z,25.20
2018-08-07T21:07:29.621Z,25.12
2018-08-07T21:10:03.293Z,25.10
2018-08-07T21:12:36.883Z,25.04
2018-08-07T21:15:11.131Z,25.02
2018-08-07T21:17:44.496Z,24.91
2018-08-07T21:20:19.496Z,24.87
2018-08-07T21:22:52.892Z,24.79
2018-08-07T21:25:26.341Z,24.67
2018-08-07T21:28:00.595Z,24.58
2018-08-07T21:30:34.048Z,24.59
2018-08-07T21:33:07.547Z,24.58
2018-08-07T21:35:41.020Z,24.55
2018-08-07T21:38:14.387Z,24.40
2018-08-07T21:40:47.780Z,24.22
2018-08-07T21:43:21.183Z,24.17
2018-08-07T21:45:54.592Z,24.21
2018-08-07T21:48:27.984Z,24.20
2018-08-07T21:51:01.409Z,24.14
2018-08-07T21:53:34.813Z,24.04
2018-08-07T21:56:08.234Z,24.00
2018-08-07T21:58:41.695Z,24.02
2018-08-07T22:01:15.110Z,23.95
2018-08-07T22:03:48.567Z,23.80
2018-08-07T22:06:21.935Z,23.83
2018-08-07T22:08:55.365Z,23.89
2018-08-07T22:11:28.816Z,23.87
2018-08-07T22:14:02.247Z,23.87
2018-08-07T22:16:35.771Z,23.87
2018-08-07T22:19:09.184Z,23.89
2018-08-07T22:21:42.616Z,23.87
2018-08-07T22:24:15.995Z,23.86
2018-08-07T22:26:49.391Z,23.76
2018-08-07T22:29:22.759Z,23.77
2018-08-07T22:31:56.155Z,23.77
2018-08-07T22:34:29.594Z,23.74
2018-08-07T22:37:03.099Z,23.79
2018-08-07T22:39:36.681Z,23.81
2018-08-07T22:42:10.278Z,23.82
2018-08-07T22:44:43.821Z,23.76
2018-08-07T22:47:17.353Z,23.77
2018-08-07T22:49:50.910Z,23.78
2018-08-07T22:52:24.527Z,23.79
2018-08-07T22:54:57.972Z,23.78
2018-08-07T22:57:31.430Z,23.70
2018-08-07T23:00:08.330Z,23.67
2018-08-07T23:02:41.835Z,23.62
2018-08-07T23:05:16.218Z,23.58
2018-08-07T23:07:49.650Z,23.49
2018-08-07T23:10:23.034Z,23.45
2018-08-07T23:12:56.494Z,23.36
2018-08-07T23:15:30.298Z,23.30
2018-08-07T23:18:03.684Z,23.28
2018-08-07T23:20:37.099Z,23.25
2018-08-07T23:23:10.651Z,23.21
2018-08-07T23:25:44.042Z,23.17
2018-08-07T23:28:17.439Z,23.21
2018-08-07T23:30:50.886Z,23.23
2018-08-07T23:33:24.246Z,23.16
2018-08-07T23:38:30.036Z,23.08
2018-08-07T23:41:03.416Z,23.05
2018-08-07T23:43:36.841Z,23.07
2018-08-07T23:46:10.219Z,23.05
2018-08-07T23:48:43.599Z,22.99
2018-08-07T23:51:17.054Z,22.93
2018-08-07T23:53:50.471Z,22.90
2018-08-07T23:56:23.895Z,22.90
2018-08-07T23:58:57.315Z,22.91
